Terminal Aerodrome Forecast
Issued by NWS Blacksburg, VA

Home | Current Version | Previous Version | Text Only | Print | Product List | Glossary On
Versions: 1 2 3 4 5 6 7 8 9 10 11 12 13 14 15 16 17 18 19 20 21 22 23 24
000
FTUS41 KRNK 270540
TAFDAN
TAF
KDAN 270540Z 2706/2806 20004KT P6SM SCT060 BKN130
      TEMPO 2706/2709 5SM -SHRA SCT018 OVC060
     FM271000 21003KT 5SM BR BKN018 OVC100
     FM271400 22007KT P6SM SCT035 BKN060
     FM280000 20003KT P6SM SCT080 BKN150=

USA.gov is the U.S. government's official web portal to all federal, state and local government web resources and services.